Time;durP1;ratioP1;P1;durP2;ratioP2;P2;SDS_P1;SDS_P2;PMS_P1;PMS_P2;Temp;Humidity;BMP_temperature;BMP_pressure;BME280_temperature;BME280_humidity;BME280_pressure;Samples;Min_cycle;Max_cycle;Signal;HPM_P1;HPM_P2
2022/02/06 00:00:09;;;;;;;5.32;2.00;;;;;;;5.00;70.92;100957.84;5017485;28;20495;-47
2022/02/06 00:02:37;;;;;;;5.03;2.50;;;;;;;4.98;70.89;100947.44;5020710;28;20189;-48
2022/02/06 00:05:03;;;;;;;5.15;2.35;;;;;;;4.95;71.28;100945.19;5010659;28;20490;-47
2022/02/06 00:07:30;;;;;;;4.38;2.47;;;;;;;4.96;70.96;100940.69;5016240;28;20526;-47
2022/02/06 00:09:56;;;;;;;5.78;2.30;;;;;;;4.94;71.26;100927.63;5020856;28;20083;-47
2022/02/06 00:12:22;;;;;;;5.25;2.58;;;;;;;4.90;71.76;100926.41;5019926;28;20956;-47
2022/02/06 00:14:47;;;;;;;5.72;2.33;;;;;;;4.89;71.96;100916.00;5016277;28;20273;-47
2022/02/06 00:17:12;;;;;;;4.28;1.75;;;;;;;4.85;72.63;100912.97;5017327;28;20019;-47
2022/02/06 00:19:41;;;;;;;4.78;2.20;;;;;;;4.86;72.01;100909.28;5018399;28;20037;-47
2022/02/06 00:22:09;;;;;;;4.78;2.10;;;;;;;4.86;72.38;100901.31;5015023;28;20060;-48
2022/02/06 00:24:48;;;;;;;5.38;2.15;;;;;;;4.84;72.43;100895.38;5010082;28;20113;-47
2022/02/06 00:27:27;;;;;;;5.00;2.88;;;;;;;4.82;72.31;100894.75;5020650;28;20071;-48
2022/02/06 00:29:59;;;;;;;4.47;1.90;;;;;;;4.82;72.52;100900.06;5011636;28;20063;-48
2022/02/06 00:32:38;;;;;;;5.25;2.55;;;;;;;4.78;72.72;100882.94;5010949;28;20025;-47
2022/02/06 00:38:12;;;;;;;6.53;2.15;;;;;;;4.78;72.85;100880.28;5016760;28;20037;-47
2022/02/06 00:43:07;;;;;;;3.42;1.90;;;;;;;4.76;73.30;100877.00;5013033;28;20102;-47
2022/02/06 00:45:32;;;;;;;4.68;2.00;;;;;;;4.75;73.22;100864.78;5011702;28;20117;-51
2022/02/06 00:47:58;;;;;;;3.25;2.30;;;;;;;4.77;73.13;100855.56;5017783;28;20092;-46
2022/02/06 00:50:24;;;;;;;5.05;1.98;;;;;;;4.77;73.86;100852.09;5012514;28;20026;-47
2022/02/06 00:53:15;;;;;;;5.57;2.42;;;;;;;4.77;73.68;100847.59;5013943;28;20418;-47
2022/02/06 00:55:38;;;;;;;2.92;2.00;;;;;;;4.75;73.43;100841.69;5012970;28;20403;-47
2022/02/06 00:58:03;;;;;;;7.35;2.03;;;;;;;4.72;74.24;100833.34;5013740;28;20025;-49
2022/02/06 01:00:29;;;;;;;6.32;2.40;;;;;;;4.75;73.53;100833.72;5013200;28;20452;-48
2022/02/06 01:02:54;;;;;;;8.85;2.90;;;;;;;4.76;73.85;100829.22;5012927;28;20030;-47
2022/02/06 01:05:20;;;;;;;7.75;2.33;;;;;;;4.77;74.17;100825.56;5012116;28;20037;-47
2022/02/06 01:07:47;;;;;;;5.28;2.80;;;;;;;4.73;73.87;100819.03;5011044;28;20160;-47
2022/02/06 01:10:14;;;;;;;5.75;2.42;;;;;;;4.72;74.34;100804.94;5010457;28;20426;-47
2022/02/06 01:12:43;;;;;;;15.50;2.60;;;;;;;4.72;74.35;100788.22;5012478;28;20037;-48
2022/02/06 01:15:19;;;;;;;4.90;2.17;;;;;;;4.70;74.57;100808.84;5016350;28;20061;-48
2022/02/06 01:20:45;;;;;;;3.83;2.38;;;;;;;4.69;74.83;100770.88;5006883;28;20231;-47
2022/02/06 01:26:02;;;;;;;4.78;2.42;;;;;;;4.66;74.76;100757.19;4988410;28;20566;-48
2022/02/06 01:28:36;;;;;;;6.18;2.20;;;;;;;4.68;74.82;100763.94;5012783;28;20060;-48
2022/02/06 01:33:35;;;;;;;4.25;2.10;;;;;;;4.71;74.77;100744.13;5018022;28;20280;-49
2022/02/06 01:38:33;;;;;;;3.03;1.92;;;;;;;4.72;74.50;100735.13;5016233;28;20025;-47
2022/02/06 01:41:04;;;;;;;6.35;2.65;;;;;;;4.71;74.63;100720.22;5020080;28;20033;-48
2022/02/06 01:43:41;;;;;;;5.18;2.10;;;;;;;4.68;75.07;100726.78;5017529;28;20112;-55
2022/02/06 01:46:20;;;;;;;6.28;2.15;;;;;;;4.70;74.91;100729.22;5016802;28;20021;-47
2022/02/06 02:24:10;;;;;;;5.75;1.77;;;;;;;4.85;74.19;100618.28;5017719;28;20040;-48
2022/02/06 02:27:02;;;;;;;1.85;1.52;;;;;;;4.87;74.29;100620.72;5017637;28;20110;-47
2022/02/06 02:44:35;;;;;;;5.10;2.78;;;;;;;4.94;73.76;100590.44;5019905;28;20032;-48
2022/02/06 02:46:04;;;;;;;5.72;1.35;;;;;;;4.98;73.38;100570.38;5010601;28;20041;-47
2022/02/06 02:48:30;;;;;;;5.40;1.63;;;;;;;5.01;73.52;100577.91;5017631;28;20077;-48
2022/02/06 02:51:01;;;;;;;4.68;1.45;;;;;;;5.02;73.71;100563.59;5015554;28;20069;-47
2022/02/06 02:53:33;;;;;;;4.40;1.65;;;;;;;5.06;73.46;100562.16;5013924;28;20025;-46
2022/02/06 03:01:25;;;;;;;6.03;2.15;;;;;;;5.13;73.10;100548.81;5017652;28;20087;-47
2022/02/06 03:03:50;;;;;;;2.50;1.40;;;;;;;5.11;72.71;100546.41;5012369;28;20380;-50
2022/02/06 03:06:16;;;;;;;2.67;1.58;;;;;;;5.12;73.11;100539.25;5011495;28;20055;-49
2022/02/06 03:08:43;;;;;;;1.88;1.40;;;;;;;5.14;72.79;100531.88;5013451;28;20033;-48
2022/02/06 03:11:10;;;;;;;5.80;1.65;;;;;;;5.17;73.04;100531.41;5011130;28;20025;-47
2022/02/06 03:16:23;;;;;;;2.25;1.35;;;;;;;5.14;73.22;100516.75;5013486;28;20025;-48
2022/02/06 03:18:57;;;;;;;5.40;1.88;;;;;;;5.19;73.52;100525.88;5014056;28;20105;-49
2022/02/06 03:21:26;;;;;;;5.20;1.73;;;;;;;5.15;73.32;100521.03;5012102;28;20037;-47
2022/02/06 03:23:55;;;;;;;7.45;2.35;;;;;;;5.18;73.38;100505.69;5011455;28;20634;-49
2022/02/06 03:26:25;;;;;;;2.50;1.50;;;;;;;5.20;73.44;100495.63;5011502;28;20459;-47
2022/02/06 03:28:55;;;;;;;4.18;1.25;;;;;;;5.21;73.42;100502.59;5017826;28;20046;-46
2022/02/06 03:31:21;;;;;;;1.60;1.35;;;;;;;5.20;73.51;100490.34;5016098;28;20053;-47
2022/02/06 03:33:50;;;;;;;2.33;1.33;;;;;;;5.19;74.00;100494.03;5013120;28;20076;-47
2022/02/06 03:36:15;;;;;;;2.80;1.60;;;;;;;5.13;74.62;100499.19;5010659;28;20426;-47
2022/02/06 03:38:41;;;;;;;1.85;1.05;;;;;;;5.14;74.23;100490.19;5010926;28;20029;-47
2022/02/06 03:41:10;;;;;;;4.68;1.60;;;;;;;5.15;74.01;100483.84;5016358;28;20029;-50
2022/02/06 03:46:42;;;;;;;2.22;1.30;;;;;;;5.13;74.84;100469.97;5016052;28;20052;-47
2022/02/06 03:49:12;;;;;;;3.03;1.40;;;;;;;5.10;75.11;100467.75;5012500;28;20422;-50
2022/02/06 03:51:38;;;;;;;2.65;1.52;;;;;;;5.11;74.73;100469.38;5010006;28;20032;-47
2022/02/06 03:54:05;;;;;;;2.42;1.20;;;;;;;5.09;75.03;100446.72;5008923;28;20113;-47
2022/02/06 03:56:32;;;;;;;2.88;1.30;;;;;;;5.08;74.83;100453.06;5012751;28;20499;-47
2022/02/06 03:59:00;;;;;;;3.05;1.10;;;;;;;5.04;75.27;100449.25;5021071;28;20497;-47
2022/02/06 04:01:26;;;;;;;3.90;1.58;;;;;;;5.04;75.30;100450.06;5018805;28;20033;-48
2022/02/06 04:03:52;;;;;;;4.88;1.40;;;;;;;5.03;75.68;100444.97;5017188;28;20034;-51
2022/02/06 04:06:17;;;;;;;3.63;1.50;;;;;;;5.02;75.70;100445.97;5013751;28;20201;-47
2022/02/06 04:08:44;;;;;;;2.13;1.35;;;;;;;5.02;75.73;100438.81;5010022;28;20034;-48
2022/02/06 04:11:15;;;;;;;4.80;1.30;;;;;;;5.02;76.04;100444.13;5010444;28;20034;-48
2022/02/06 04:13:55;;;;;;;2.40;1.40;;;;;;;5.01;76.11;100428.41;5015685;28;20029;-50
2022/02/06 04:16:38;;;;;;;2.67;1.13;;;;;;;4.99;76.06;100425.97;5017892;28;20443;-49
2022/02/06 04:19:15;;;;;;;6.03;1.77;;;;;;;4.96;76.28;100422.94;5014449;28;20065;-47
2022/02/06 04:21:41;;;;;;;1.92;1.30;;;;;;;4.93;76.79;100424.22;5010337;28;20038;-47
2022/02/06 04:24:06;;;;;;;2.38;1.25;;;;;;;4.94;76.65;100412.56;5014306;28;20036;-47
2022/02/06 04:26:32;;;;;;;2.67;1.50;;;;;;;4.94;76.45;100412.56;5012799;28;20038;-49
2022/02/06 04:28:58;;;;;;;2.72;1.30;;;;;;;4.94;76.72;100409.09;5013595;28;20084;-48
2022/02/06 04:31:23;;;;;;;7.22;2.03;;;;;;;4.95;76.61;100397.44;5011339;28;20037;-49
2022/02/06 04:33:51;;;;;;;2.55;1.73;;;;;;;4.96;76.74;100383.94;5010373;28;20028;-47
2022/02/06 04:36:17;;;;;;;5.43;1.90;;;;;;;4.96;76.93;100373.31;5011735;28;20430;-48
2022/02/06 04:38:54;;;;;;;3.38;1.40;;;;;;;4.96;76.57;100365.34;5014222;28;20029;-48
2022/02/06 04:47:16;;;;;;;4.45;1.50;;;;;;;4.93;77.15;100360.50;5014637;28;20052;-48
2022/02/06 05:29:23;;;;;;;2.45;1.63;;;;;;;4.95;78.41;100304.53;5039048;28;20047;-49
2022/02/06 05:34:17;;;;;;;2.05;1.33;;;;;;;4.95;78.44;100289.41;5042708;28;20122;-49
2022/02/06 05:36:43;;;;;;;2.47;1.50;;;;;;;4.96;78.44;100292.88;5041760;28;20484;-49
2022/02/06 05:39:09;;;;;;;4.75;1.65;;;;;;;4.97;78.10;100287.31;5046817;28;20303;-50
2022/02/06 05:41:35;;;;;;;3.28;1.60;;;;;;;4.96;78.34;100293.66;5045558;28;20036;-48
2022/02/06 05:44:02;;;;;;;5.22;1.48;;;;;;;4.98;78.38;100290.78;5039193;28;20029;-48
2022/02/06 05:46:28;;;;;;;3.55;1.50;;;;;;;4.96;78.93;100283.06;5042333;28;20514;-49
2022/02/06 05:48:53;;;;;;;2.67;1.35;;;;;;;4.99;78.40;100287.91;5043715;28;20120;-49
2022/02/06 05:51:19;;;;;;;2.60;1.80;;;;;;;5.00;78.16;100284.22;5040059;28;20024;-48
2022/02/06 05:53:45;;;;;;;3.33;1.40;;;;;;;5.01;78.50;100280.53;5044004;28;20056;-49
2022/02/06 05:56:11;;;;;;;4.13;1.40;;;;;;;5.01;78.50;100275.22;5043662;28;20079;-49
2022/02/06 05:58:36;;;;;;;3.47;1.67;;;;;;;4.98;78.52;100275.66;5042300;28;20306;-48
2022/02/06 06:01:02;;;;;;;2.92;1.38;;;;;;;4.99;78.66;100271.97;5041815;28;20017;-49
2022/02/06 06:03:27;;;;;;;3.65;1.50;;;;;;;4.99;78.70;100258.72;5039765;28;20035;-48
2022/02/06 06:05:53;;;;;;;5.75;1.95;;;;;;;4.99;78.29;100261.38;5043634;28;20580;-50
2022/02/06 06:08:20;;;;;;;4.07;1.65;;;;;;;5.00;78.43;100262.97;5038487;28;20279;-47
2022/02/06 06:10:46;;;;;;;3.70;1.85;;;;;;;5.01;78.75;100259.28;5046057;28;20132;-49
2022/02/06 06:13:11;;;;;;;2.33;1.60;;;;;;;4.98;78.80;100249.13;5045622;28;20531;-48
2022/02/06 06:15:37;;;;;;;2.83;2.03;;;;;;;4.99;79.17;100261.38;5042860;28;20288;-50
2022/02/06 06:18:05;;;;;;;3.20;1.60;;;;;;;5.00;78.85;100252.38;5044775;28;20025;-50
2022/02/06 06:20:33;;;;;;;6.45;1.63;;;;;;;4.99;79.02;100255.25;5045818;28;20164;-48
2022/02/06 06:22:59;;;;;;;2.17;1.67;;;;;;;4.97;79.09;100252.00;5047338;28;20068;-50
2022/02/06 06:25:27;;;;;;;2.92;1.60;;;;;;;4.99;79.35;100247.28;5047651;28;20059;-49
2022/02/06 06:27:55;;;;;;;3.97;1.50;;;;;;;5.00;79.28;100238.28;5044818;28;20028;-49
2022/02/06 06:30:20;;;;;;;5.35;1.30;;;;;;;5.01;79.04;100238.06;5043125;28;20650;-49
2022/02/06 06:32:46;;;;;;;3.28;1.42;;;;;;;4.99;79.61;100226.03;5046526;28;20028;-49
2022/02/06 06:35:11;;;;;;;3.63;1.52;;;;;;;4.97;79.48;100231.56;5049606;28;20079;-49
2022/02/06 06:37:39;;;;;;;2.22;1.60;;;;;;;4.99;79.87;100226.03;5045407;28;20032;-47
2022/02/06 06:40:05;;;;;;;2.08;1.60;;;;;;;5.00;79.57;100212.53;5043189;28;20039;-48
2022/02/06 06:42:30;;;;;;;2.50;1.40;;;;;;;4.98;79.92;100222.56;5043594;28;20122;-50
2022/02/06 06:44:56;;;;;;;3.00;1.70;;;;;;;4.98;79.99;100219.91;5055521;28;20371;-49
2022/02/06 06:47:21;;;;;;;2.78;1.50;;;;;;;4.96;80.40;100218.53;5044285;28;20142;-49
2022/02/06 06:49:47;;;;;;;7.07;1.67;;;;;;;4.99;79.99;100212.75;5045726;28;20033;-49
2022/02/06 06:52:13;;;;;;;3.55;1.70;;;;;;;5.01;79.68;100214.16;5045304;28;20024;-49
2022/02/06 06:54:48;;;;;;;3.85;1.60;;;;;;;4.96;80.33;100210.56;5043334;28;20048;-49
2022/02/06 06:57:24;;;;;;;4.30;2.50;;;;;;;4.98;80.05;100214.59;5045426;28;20035;-52
2022/02/06 07:04:49;;;;;;;3.65;1.52;;;;;;;5.01;80.49;100194.75;5044865;28;20520;-50
2022/02/06 07:07:15;;;;;;;3.40;1.67;;;;;;;5.00;80.54;100195.81;5042545;28;20021;-49
2022/02/06 07:09:41;;;;;;;3.63;1.70;;;;;;;5.00;80.15;100199.25;5042910;28;20037;-50
2022/02/06 07:12:10;;;;;;;4.25;1.75;;;;;;;4.99;80.90;100189.69;5042140;28;20031;-49
2022/02/06 07:14:36;;;;;;;2.70;1.42;;;;;;;5.02;80.48;100185.75;5047499;28;20108;-51
2022/02/06 07:17:02;;;;;;;5.40;1.50;;;;;;;5.03;80.74;100188.22;5042981;28;20019;-48
2022/02/06 07:19:28;;;;;;;3.17;1.52;;;;;;;5.08;80.19;100183.03;5039441;28;20032;-50
2022/02/06 07:21:54;;;;;;;2.50;1.30;;;;;;;5.09;80.27;100176.69;5046677;28;20516;-49
2022/02/06 07:24:21;;;;;;;5.47;1.80;;;;;;;5.13;80.20;100177.84;5041975;28;20081;-50
2022/02/06 07:26:50;;;;;;;1.83;1.33;;;;;;;5.11;80.62;100174.63;5041884;28;20025;-50
2022/02/06 07:29:17;;;;;;;2.28;1.52;;;;;;;5.10;80.77;100173.00;5040640;28;20087;-51
2022/02/06 07:31:43;;;;;;;2.10;1.63;;;;;;;5.11;80.42;100164.00;5048456;28;20082;-48
2022/02/06 07:34:11;;;;;;;3.45;1.50;;;;;;;5.10;80.78;100162.38;5041270;28;20032;-51
2022/02/06 07:36:37;;;;;;;1.63;1.30;;;;;;;5.11;80.76;100157.88;5049815;28;20117;-48
2022/02/06 07:39:03;;;;;;;3.30;1.42;;;;;;;5.12;80.94;100154.97;5041772;28;20116;-49
2022/02/06 07:41:29;;;;;;;2.70;1.45;;;;;;;5.12;81.11;100152.34;5041624;28;20025;-49
2022/02/06 07:43:54;;;;;;;3.70;1.50;;;;;;;5.12;81.10;100154.97;5041919;28;20387;-50
2022/02/06 07:46:24;;;;;;;3.42;1.65;;;;;;;5.12;81.57;100154.19;5040620;28;20672;-49
2022/02/06 07:48:49;;;;;;;2.03;1.38;;;;;;;5.11;81.16;100144.59;5041642;28;20494;-49
2022/02/06 07:51:15;;;;;;;2.22;1.30;;;;;;;5.13;81.58;100145.16;5045033;28;20049;-49
2022/02/06 07:53:40;;;;;;;1.35;1.20;;;;;;;5.14;81.65;100136.97;5040266;28;20152;-49
2022/02/06 07:56:06;;;;;;;2.55;1.25;;;;;;;5.12;81.62;100133.75;5043238;28;20025;-52
2022/02/06 07:58:31;;;;;;;1.85;1.30;;;;;;;5.16;81.57;100128.78;5040134;28;20441;-49
2022/02/06 08:00:57;;;;;;;2.80;1.42;;;;;;;5.19;81.29;100130.97;5036669;28;20104;-49
2022/02/06 08:03:24;;;;;;;3.58;1.40;;;;;;;5.20;81.62;100118.50;5033288;28;20032;-49
2022/02/06 08:05:51;;;;;;;3.88;1.48;;;;;;;5.23;81.71;100112.75;5041518;28;20120;-49
2022/02/06 08:08:16;;;;;;;1.20;0.98;;;;;;;5.25;81.57;100121.31;5042738;28;20025;-49
2022/02/06 08:10:43;;;;;;;2.05;1.20;;;;;;;5.25;81.80;100103.53;5039597;28;20383;-49
2022/02/06 08:13:25;;;;;;;3.13;1.30;;;;;;;5.26;81.54;100099.03;5037114;28;20032;-51
2022/02/06 08:15:50;;;;;;;1.98;1.35;;;;;;;5.32;81.27;100108.72;5043742;28;20055;-50
2022/02/06 08:18:16;;;;;;;1.50;1.30;;;;;;;5.34;81.84;100103.97;5045416;28;20033;-53
2022/02/06 08:20:41;;;;;;;2.00;1.10;;;;;;;5.35;81.76;100105.59;5037260;28;20092;-50
2022/02/06 08:23:07;;;;;;;2.42;1.15;;;;;;;5.38;81.78;100102.47;5046975;28;20097;-49
2022/02/06 08:25:33;;;;;;;1.30;1.17;;;;;;;5.41;81.98;100099.41;5046804;28;20020;-49
2022/02/06 08:28:02;;;;;;;1.65;1.20;;;;;;;5.42;82.23;100085.06;5042849;28;20041;-53
2022/02/06 08:30:30;;;;;;;3.25;1.20;;;;;;;5.45;81.93;100092.56;5040408;28;20024;-50
2022/02/06 08:32:56;;;;;;;2.53;1.02;;;;;;;5.50;81.89;100087.38;5045452;28;20074;-49
2022/02/06 08:35:22;;;;;;;3.50;1.20;;;;;;;5.53;81.78;100081.59;5041723;28;20206;-49
2022/02/06 08:37:50;;;;;;;2.30;1.00;;;;;;;5.52;81.57;100076.50;5038493;28;20029;-51
2022/02/06 08:40:16;;;;;;;1.75;0.93;;;;;;;5.55;81.70;100076.84;5046183;28;20025;-51
2022/02/06 08:42:43;;;;;;;2.08;1.10;;;;;;;5.55;82.02;100060.91;5040386;28;20020;-49
2022/02/06 08:45:12;;;;;;;1.42;1.08;;;;;;;5.62;81.61;100069.59;5036760;28;20033;-48
2022/02/06 08:47:39;;;;;;;2.03;1.02;;;;;;;5.63;81.77;100063.22;5036385;28;20025;-51
2022/02/06 08:50:06;;;;;;;1.60;0.90;;;;;;;5.65;81.49;100063.81;5031555;28;20037;-50
2022/02/06 08:52:32;;;;;;;1.08;0.98;;;;;;;5.70;81.60;100060.44;5036221;28;20106;-51
2022/02/06 08:54:57;;;;;;;1.30;1.20;;;;;;;5.72;81.91;100053.84;5039630;28;20146;-50
2022/02/06 08:57:26;;;;;;;1.73;1.08;;;;;;;5.76;81.41;100059.53;5032212;28;20029;-48
2022/02/06 08:59:52;;;;;;;1.77;1.25;;;;;;;5.80;81.27;100057.22;5036268;28;20115;-52
2022/02/06 09:02:19;;;;;;;1.38;1.00;;;;;;;5.84;81.32;100050.38;5034603;28;20116;-50
2022/02/06 09:04:47;;;;;;;1.38;1.00;;;;;;;5.86;81.58;100058.91;5033409;28;20086;-51
2022/02/06 09:07:14;;;;;;;1.10;0.85;;;;;;;5.85;81.70;100041.34;5035991;28;20020;-52
2022/02/06 09:09:47;;;;;;;3.50;1.08;;;;;;;5.85;82.19;100033.38;5037840;28;20028;-50
2022/02/06 09:12:14;;;;;;;1.30;1.10;;;;;;;5.93;81.34;100044.50;5038679;28;20028;-52
2022/02/06 09:14:40;;;;;;;3.20;1.20;;;;;;;5.98;80.96;100038.47;5043838;28;20097;-50
2022/02/06 09:17:06;;;;;;;1.17;1.02;;;;;;;5.99;81.46;100030.25;5033380;28;20434;-50
2022/02/06 09:19:34;;;;;;;1.75;0.82;;;;;;;5.96;82.04;100036.06;5043016;28;20033;-50
2022/02/06 09:22:00;;;;;;;4.53;1.17;;;;;;;6.00;81.56;100031.88;5036443;28;20564;-50
2022/02/06 09:24:26;;;;;;;2.40;1.00;;;;;;;6.04;81.26;100025.03;5043750;28;20389;-50
2022/02/06 09:26:52;;;;;;;2.10;1.20;;;;;;;6.07;81.07;100027.22;5040519;28;20031;-50
2022/02/06 09:29:17;;;;;;;2.28;1.20;;;;;;;6.08;81.18;100022.72;5032047;28;20375;-52
2022/02/06 09:31:49;;;;;;;2.33;1.05;;;;;;;6.11;80.83;100019.59;5036998;28;20545;-50
2022/02/06 09:36:43;;;;;;;2.38;1.20;;;;;;;6.21;81.12;100011.81;5038014;28;20029;-50
2022/02/06 09:39:11;;;;;;;3.13;1.20;;;;;;;6.27;81.11;100018.03;5037220;28;20474;-51
2022/02/06 09:41:42;;;;;;;1.60;0.80;;;;;;;6.28;81.07;100012.50;5038991;28;20474;-50
2022/02/06 09:44:08;;;;;;;2.03;0.88;;;;;;;6.31;81.20;100013.88;5032680;28;20371;-49
2022/02/06 09:46:35;;;;;;;1.75;1.20;;;;;;;6.35;81.23;100010.47;5035502;28;20309;-50
2022/02/06 09:49:02;;;;;;;1.95;1.00;;;;;;;6.39;80.84;100005.50;5040694;28;20552;-50
2022/02/06 09:51:27;;;;;;;1.33;0.90;;;;;;;6.39;80.75;100007.34;5049695;28;20305;-49
2022/02/06 09:53:53;;;;;;;2.13;1.17;;;;;;;6.39;80.76;100002.03;5037882;28;20078;-50
2022/02/06 09:56:22;;;;;;;2.03;0.80;;;;;;;6.40;80.97;100003.63;5040186;28;20039;-49
2022/02/06 10:01:16;;;;;;;1.27;0.80;;;;;;;6.42;80.74;99994.34;5041001;28;20051;-51
2022/02/06 10:03:47;;;;;;;2.72;1.10;;;;;;;6.41;81.01;99984.75;5035761;28;20043;-49
2022/02/06 10:06:27;;;;;;;1.25;0.85;;;;;;;6.44;80.72;99983.47;5044581;28;20064;-49
2022/02/06 10:08:58;;;;;;;4.82;1.10;;;;;;;6.43;80.67;99979.19;5047733;28;20482;-50
2022/02/06 10:11:27;;;;;;;0.80;0.80;;;;;;;6.44;80.77;99970.16;5050802;28;20478;-48
2022/02/06 10:13:53;;;;;;;1.05;0.65;;;;;;;6.44;81.07;99975.50;5046508;28;20828;-51
2022/02/06 10:16:19;;;;;;;0.93;0.80;;;;;;;6.49;80.81;99956.97;5053326;28;20114;-52
2022/02/06 10:18:45;;;;;;;1.92;0.60;;;;;;;6.50;80.36;99947.94;5045557;28;20029;-49
2022/02/06 10:21:15;;;;;;;2.90;0.80;;;;;;;6.51;80.38;99954.88;5049675;28;20396;-50
2022/02/06 10:23:48;;;;;;;1.63;0.60;;;;;;;6.54;80.32;99944.56;5050535;28;20032;-50
2022/02/06 10:26:28;;;;;;;1.65;0.70;;;;;;;6.53;80.30;99937.63;5054323;28;20028;-50
2022/02/06 10:31:59;;;;;;;1.17;0.63;;;;;;;6.62;80.42;99924.69;5049689;28;20079;-49
2022/02/06 10:34:30;;;;;;;1.00;0.75;;;;;;;6.65;79.82;99932.22;5045755;28;20032;-50
2022/02/06 10:37:12;;;;;;;1.15;0.80;;;;;;;6.66;80.06;99912.53;5055564;28;20025;-49
2022/02/06 10:39:50;;;;;;;2.97;0.85;;;;;;;6.67;80.08;99911.50;5049149;28;20482;-50
2022/02/06 10:42:46;;;;;;;0.93;0.70;;;;;;;6.71;79.93;99901.97;5053424;28;20040;-49
2022/02/06 10:45:19;;;;;;;1.67;0.60;;;;;;;6.71;79.73;99888.66;5050652;28;20040;-50
2022/02/06 10:47:48;;;;;;;1.25;0.73;;;;;;;6.75;79.95;99886.31;5049320;28;20029;-49
2022/02/06 10:50:17;;;;;;;4.80;1.00;;;;;;;6.74;79.98;99895.34;5050391;28;20028;-53
2022/02/06 10:52:44;;;;;;;1.48;0.75;;;;;;;6.74;79.96;99882.03;5052031;28;20029;-50
2022/02/06 10:55:10;;;;;;;1.85;0.80;;;;;;;6.80;79.90;99886.38;5051369;28;20033;-49
2022/02/06 10:57:37;;;;;;;2.22;0.63;;;;;;;6.81;79.84;99870.16;5049409;28;20024;-53
2022/02/06 11:00:06;;;;;;;0.68;0.60;;;;;;;6.82;80.04;99854.97;5051522;28;20516;-51
2022/02/06 11:02:58;;;;;;;1.35;0.90;;;;;;;6.82;80.08;99845.16;5049646;28;20532;-49
2022/02/06 11:05:33;;;;;;;0.85;0.82;;;;;;;6.88;79.75;99835.38;5050546;28;20082;-50
2022/02/06 11:08:01;;;;;;;3.38;0.75;;;;;;;6.84;79.88;99827.09;5052331;28;20025;-51
2022/02/06 11:10:33;;;;;;;1.88;0.98;;;;;;;6.88;79.63;99825.53;5052493;28;20056;-51
2022/02/06 11:13:04;;;;;;;1.52;0.68;;;;;;;6.96;79.40;99818.97;5051733;28;20025;-50
2022/02/06 11:15:31;;;;;;;1.00;0.80;;;;;;;6.96;79.15;99803.78;5050919;28;20167;-50
2022/02/06 11:18:16;;;;;;;0.70;0.70;;;;;;;6.95;79.18;99796.06;5047422;28;20033;-50
2022/02/06 11:20:57;;;;;;;1.38;0.80;;;;;;;6.98;78.99;99795.56;5042614;28;20033;-49
2022/02/06 11:23:37;;;;;;;1.00;0.93;;;;;;;7.03;79.21;99776.19;5049224;28;20387;-50
2022/02/06 11:26:10;;;;;;;1.15;1.00;;;;;;;7.07;78.79;99778.09;5048247;28;20075;-48
2022/02/06 11:28:36;;;;;;;2.58;0.80;;;;;;;7.10;78.97;99776.78;5051228;28;20433;-50
2022/02/06 11:31:01;;;;;;;1.48;0.90;;;;;;;7.11;79.19;99773.06;5048125;28;20259;-52
2022/02/06 11:33:28;;;;;;;2.33;0.70;;;;;;;7.12;78.92;99770.16;5049541;28;20231;-50
2022/02/06 11:35:57;;;;;;;1.27;0.73;;;;;;;7.16;79.05;99763.28;5047784;28;20803;-51
2022/02/06 11:45:03;;;;;;;1.77;1.15;;;;;;;7.19;78.54;99770.00;5046480;28;20039;-50
2022/02/06 11:47:33;;;;;;;3.30;1.08;;;;;;;7.24;78.26;99768.19;5047505;28;20044;-51
2022/02/06 11:50:07;;;;;;;4.18;1.33;;;;;;;7.27;78.14;99753.56;5045055;28;20029;-51
2022/02/06 11:53:06;;;;;;;2.08;0.75;;;;;;;7.23;78.29;99747.13;5046976;28;20078;-51
2022/02/06 11:55:31;;;;;;;0.77;0.73;;;;;;;7.32;78.71;99737.59;5025165;28;20247;-49
2022/02/06 11:58:29;;;;;;;3.13;0.63;;;;;;;7.35;77.83;99726.44;5051358;28;20032;-49
2022/02/06 12:01:25;;;;;;;1.13;0.90;;;;;;;7.37;77.77;99727.03;5047359;28;20025;-50
2022/02/06 12:03:56;;;;;;;1.73;0.70;;;;;;;7.46;77.78;99711.38;5038488;28;20036;-49
2022/02/06 12:06:39;;;;;;;1.70;0.77;;;;;;;7.47;77.86;99705.78;5046815;28;20445;-49
2022/02/06 12:09:04;;;;;;;0.50;0.50;;;;;;;7.49;77.68;99698.34;5049196;28;20494;-50
2022/02/06 12:11:34;;;;;;;4.05;0.90;;;;;;;7.48;77.29;99706.59;5049487;28;20047;-50
2022/02/06 12:14:21;;;;;;;2.55;0.80;;;;;;;7.48;77.43;99704.72;5048321;28;20049;-51
2022/02/06 12:17:10;;;;;;;0.65;0.60;;;;;;;7.49;77.46;99697.53;5047431;28;20020;-49
2022/02/06 12:19:36;;;;;;;1.40;0.80;;;;;;;7.54;77.19;99698.41;5049300;28;20025;-49
2022/02/06 12:22:26;;;;;;;1.20;0.70;;;;;;;7.49;77.13;99685.00;5046426;28;20135;-52
2022/02/06 12:24:53;;;;;;;1.05;0.80;;;;;;;7.55;77.31;99677.88;5044042;28;20497;-52
2022/02/06 12:27:21;;;;;;;1.27;0.80;;;;;;;7.55;77.37;99668.03;5049500;28;20036;-51
2022/02/06 12:30:00;;;;;;;0.80;0.70;;;;;;;7.55;77.25;99661.88;5048286;28;20020;-51
2022/02/06 12:32:32;;;;;;;1.65;0.70;;;;;;;7.55;77.46;99649.38;5051379;28;20119;-50
2022/02/06 12:37:42;;;;;;;2.25;0.70;;;;;;;7.57;77.04;99623.25;5048797;28;20539;-50
2022/02/06 12:40:11;;;;;;;2.88;0.98;;;;;;;7.58;76.97;99614.19;5048696;28;20041;-50
2022/02/06 12:42:39;;;;;;;1.10;0.80;;;;;;;7.63;77.16;99609.94;5053742;28;20055;-50
2022/02/06 12:45:07;;;;;;;1.95;0.70;;;;;;;7.64;76.65;99598.22;5043212;28;20518;-50
2022/02/06 12:47:41;;;;;;;1.20;0.98;;;;;;;7.64;76.89;99590.22;5050481;28;20034;-53
2022/02/06 12:50:21;;;;;;;2.72;0.95;;;;;;;7.62;76.74;99584.34;5049593;28;20262;-51
2022/02/06 12:52:48;;;;;;;2.60;0.93;;;;;;;7.67;76.56;99563.06;5046206;28;20031;-50
2022/02/06 12:55:14;;;;;;;1.48;0.55;;;;;;;7.69;76.52;99566.25;5046751;28;20027;-52
2022/02/06 12:57:51;;;;;;;1.98;0.73;;;;;;;7.69;76.30;99556.41;5048857;28;20079;-49
2022/02/06 13:00:47;;;;;;;0.85;0.82;;;;;;;7.66;76.44;99543.59;5045809;28;20322;-49
2022/02/06 13:03:37;;;;;;;2.08;0.80;;;;;;;7.73;76.34;99540.72;5049625;28;20033;-51
2022/02/06 13:06:06;;;;;;;2.60;0.80;;;;;;;7.74;76.28;99528.97;5047425;28;20025;-51
2022/02/06 13:08:37;;;;;;;1.95;0.70;;;;;;;7.75;76.10;99522.59;5047979;28;20028;-50
2022/02/06 13:11:08;;;;;;;1.52;0.70;;;;;;;7.78;76.21;99524.72;5044092;28;20021;-53
2022/02/06 13:13:43;;;;;;;1.10;0.68;;;;;;;7.78;75.90;99509.53;5047728;28;20039;-53
2022/02/06 13:26:44;;;;;;;0.70;0.60;;;;;;;7.77;75.42;99461.81;5047661;28;20031;-51
2022/02/06 13:32:12;;;;;;;1.50;0.73;;;;;;;7.77;75.22;99454.59;5038383;28;20099;-51
2022/02/06 13:37:42;;;;;;;1.20;1.02;;;;;;;7.80;75.20;99430.09;5022000;28;20069;-48
2022/02/06 13:40:14;;;;;;;1.10;0.70;;;;;;;7.81;75.19;99428.22;5044403;28;20025;-50
2022/02/06 13:42:41;;;;;;;0.75;0.73;;;;;;;7.83;75.11;99428.75;5046021;28;20024;-49
2022/02/06 13:45:14;;;;;;;0.90;0.68;;;;;;;7.86;75.24;99425.56;5033270;28;20031;-53
2022/02/06 13:47:40;;;;;;;0.80;0.80;;;;;;;7.90;74.82;99405.31;5041247;28;20517;-51
2022/02/06 13:50:10;;;;;;;0.68;0.68;;;;;;;7.87;74.81;99398.63;5048431;28;20040;-52
2022/02/06 13:52:44;;;;;;;1.95;0.95;;;;;;;7.88;75.20;99386.09;5050055;28;20036;-53
2022/02/06 13:55:12;;;;;;;0.75;0.38;;;;;;;7.87;75.24;99376.50;5038776;28;20029;-50
2022/02/06 13:57:39;;;;;;;1.92;0.77;;;;;;;7.88;74.83;99370.09;5040662;28;20021;-50
2022/02/06 14:00:12;;;;;;;0.93;0.60;;;;;;;7.86;75.19;99357.03;5037391;28;20578;-53
2022/02/06 14:02:52;;;;;;;1.23;0.73;;;;;;;7.82;74.98;99352.50;5039818;28;20029;-51
2022/02/06 14:05:21;;;;;;;1.58;0.80;;;;;;;7.82;75.28;99331.16;5036263;28;20444;-50
2022/02/06 14:08:08;;;;;;;2.65;0.80;;;;;;;7.77;75.16;99323.97;5037018;28;20108;-50
2022/02/06 14:10:49;;;;;;;0.77;0.68;;;;;;;7.79;75.28;99316.50;5042775;28;20028;-50
2022/02/06 14:13:23;;;;;;;1.65;0.70;;;;;;;7.75;75.51;99320.75;5038356;28;20398;-52
2022/02/06 14:15:49;;;;;;;0.65;0.60;;;;;;;7.74;75.93;99313.03;5034736;28;20025;-51
2022/02/06 14:18:14;;;;;;;2.35;0.77;;;;;;;7.67;76.06;99307.94;5039906;28;20028;-51
2022/02/06 14:20:40;;;;;;;1.10;0.73;;;;;;;7.66;75.95;99302.88;5035131;28;20029;-52
2022/02/06 14:23:14;;;;;;;1.08;0.60;;;;;;;7.60;76.46;99298.59;5025864;28;20510;-50
2022/02/06 14:25:42;;;;;;;1.30;0.70;;;;;;;7.56;76.91;99293.78;5037993;28;20031;-52
2022/02/06 14:28:29;;;;;;;0.50;0.50;;;;;;;7.53;76.94;99280.97;5041276;28;20498;-52
2022/02/06 14:30:55;;;;;;;1.75;0.70;;;;;;;7.50;77.02;99270.03;5042510;28;20056;-51